createdAt,value
2023-05-21T00:01:54.323Z,101870.16
2023-05-21T00:04:29.866Z,101874.56
2023-05-21T00:06:58.445Z,101868.34
2023-05-21T00:09:26.426Z,101866.63
2023-05-21T00:11:54.432Z,101867.47
2023-05-21T00:14:24.305Z,101863.06
2023-05-21T00:16:53.783Z,101857.78
2023-05-21T00:19:21.824Z,101865.75
2023-05-21T00:21:50.422Z,101855.03
2023-05-21T00:24:18.457Z,101857.72
2023-05-21T00:26:52.023Z,101853.31
2023-05-21T00:29:20.078Z,101850.63
2023-05-21T00:31:48.146Z,101847.94
2023-05-21T00:34:17.853Z,101843.50
2023-05-21T00:36:47.783Z,101842.56
2023-05-21T00:39:18.648Z,101840.81
2023-05-21T00:41:46.702Z,101836.41
2023-05-21T00:44:16.769Z,101835.53
2023-05-21T00:46:45.533Z,101839.94
2023-05-21T00:49:17.608Z,101836.41
2023-05-21T00:51:46.220Z,101832.78
2023-05-21T00:54:14.220Z,101824.91
2023-05-21T00:56:43.031Z,101826.66
2023-05-21T00:59:13.865Z,101822.16
2023-05-21T01:01:42.078Z,101826.66
2023-05-21T01:04:10.063Z,101826.56
2023-05-21T01:06:39.511Z,101832.00
2023-05-21T01:09:07.720Z,101823.09
2023-05-21T01:11:40.988Z,101825.78
2023-05-21T01:14:11.087Z,101825.78
2023-05-21T01:16:42.230Z,101828.47
2023-05-21T01:19:15.002Z,101817.75
2023-05-21T01:21:47.570Z,101822.22
2023-05-21T01:24:17.213Z,101821.28
2023-05-21T01:26:46.625Z,101811.50
2023-05-21T01:29:15.610Z,101813.28
2023-05-21T01:31:55.648Z,101811.50
2023-05-21T01:34:29.615Z,101808.88
2023-05-21T01:37:03.485Z,101810.63
2023-05-21T01:39:36.597Z,101814.25
2023-05-21T01:42:07.056Z,101807.06
2023-05-21T01:44:35.984Z,101800.00
2023-05-21T01:47:05.643Z,101802.66
2023-05-21T01:49:34.550Z,101800.84
2023-05-21T01:52:02.836Z,101800.84
2023-05-21T01:54:32.180Z,101797.41
2023-05-21T01:57:00.187Z,101793.75
2023-05-21T01:59:30.033Z,101798.25
2023-05-21T02:01:58.092Z,101791.09
2023-05-21T02:04:26.051Z,101792.91
2023-05-21T02:06:54.847Z,101796.44
2023-05-21T02:09:22.869Z,101790.22
2023-05-21T02:11:52.227Z,101794.72
2023-05-21T02:14:20.544Z,101800.94
2023-05-21T02:16:48.614Z,101798.25
2023-05-21T02:19:16.756Z,101796.44
2023-05-21T02:21:45.878Z,101789.34
2023-05-21T02:24:15.486Z,101789.34
2023-05-21T02:26:43.603Z,101784.00
2023-05-21T02:29:12.953Z,101784.00
2023-05-21T02:31:42.556Z,101777.78
2023-05-21T02:34:10.531Z,101779.56
2023-05-21T02:36:38.601Z,101779.50
2023-05-21T02:39:06.672Z,101786.72
2023-05-21T02:41:38.207Z,101774.28
2023-05-21T02:44:06.326Z,101775.16
2023-05-21T02:46:35.636Z,101783.13
2023-05-21T02:49:03.677Z,101775.16
2023-05-21T02:51:31.680Z,101776.00
2023-05-21T02:53:59.703Z,101773.44
2023-05-21T02:56:27.654Z,101777.84
2023-05-21T02:58:55.668Z,101776.09
2023-05-21T03:01:23.723Z,101772.56
2023-05-21T03:03:53.102Z,101772.56
2023-05-21T03:06:23.817Z,101778.78
2023-05-21T03:08:51.909Z,101782.31
2023-05-21T03:11:20.202Z,101777.06
2023-05-21T03:13:50.798Z,101773.44
2023-05-21T03:16:18.844Z,101772.56
2023-05-21T03:18:47.526Z,101762.72
2023-05-21T03:21:17.807Z,101767.19
2023-05-21T03:23:45.755Z,101769.03
2023-05-21T03:26:14.106Z,101764.53
2023-05-21T03:28:42.248Z,101760.13
2023-05-21T03:31:10.201Z,101769.88
2023-05-21T03:33:38.369Z,101764.59
2023-05-21T03:36:07.035Z,101768.16
2023-05-21T03:38:37.173Z,101758.34
2023-05-21T03:41:05.321Z,101760.13
2023-05-21T03:43:33.266Z,101757.50
2023-05-21T03:46:01.221Z,101753.00
2023-05-21T03:48:29.527Z,101766.41
2023-05-21T03:50:59.704Z,101761.03
2023-05-21T03:53:28.265Z,101757.50
2023-05-21T03:55:57.686Z,101749.53
2023-05-21T03:58:26.885Z,101757.63
2023-05-21T04:00:54.918Z,101757.72
2023-05-21T04:03:23.131Z,101760.41
2023-05-21T04:05:51.518Z,101760.41
2023-05-21T04:08:19.467Z,101770.16
2023-05-21T04:10:47.740Z,101763.00
2023-05-21T04:13:17.045Z,101764.81
2023-05-21T04:15:46.725Z,101769.22
2023-05-21T04:18:15.581Z,101763.88
2023-05-21T04:20:43.870Z,101765.69
2023-05-21T04:23:14.894Z,101776.34
2023-05-21T04:25:45.037Z,101776.34
2023-05-21T04:28:13.088Z,101775.47
2023-05-21T04:30:42.412Z,101781.69
2023-05-21T04:33:10.567Z,101770.88
2023-05-21T04:35:44.530Z,101784.28
2023-05-21T04:38:12.624Z,101781.59
2023-05-21T04:40:40.644Z,101777.97
2023-05-21T04:43:09.053Z,101782.47
2023-05-21T04:45:37.188Z,101780.75
2023-05-21T04:48:07.789Z,101774.53
2023-05-21T04:50:36.002Z,101774.53
2023-05-21T04:53:04.458Z,101782.47
2023-05-21T04:55:32.419Z,101780.75
2023-05-21T04:58:00.475Z,101777.19
2023-05-21T05:00:28.426Z,101776.34
2023-05-21T05:02:56.483Z,101783.44
2023-05-21T05:05:25.910Z,101782.56
2023-05-21T05:07:53.889Z,101778.06
2023-05-21T05:10:21.828Z,101768.31
2023-05-21T05:12:50.093Z,101771.84
2023-05-21T05:15:18.077Z,101778.06
2023-05-21T05:17:48.355Z,101774.44
2023-05-21T05:20:16.553Z,101774.44
2023-05-21T05:22:45.926Z,101773.66
2023-05-21T05:25:13.890Z,101770.97
2023-05-21T05:27:41.900Z,101770.97
2023-05-21T05:30:10.773Z,101772.72
2023-05-21T05:32:38.790Z,101772.72
2023-05-21T05:35:08.291Z,101770.97
2023-05-21T05:37:36.283Z,101766.53
2023-05-21T05:40:06.892Z,101765.63
2023-05-21T05:42:34.885Z,101775.47
2023-05-21T05:45:02.913Z,101771.03
2023-05-21T05:47:31.381Z,101767.44
2023-05-21T05:49:59.364Z,101770.97
2023-05-21T05:52:27.389Z,101766.53
2023-05-21T05:54:55.409Z,101765.63
2023-05-21T05:57:24.750Z,101758.50
2023-05-21T05:59:52.753Z,101765.63
2023-05-21T06:02:20.829Z,101770.97
2023-05-21T06:04:48.937Z,101761.19
2023-05-21T06:07:17.097Z,101766.47
2023-05-21T06:09:47.843Z,101762.00
2023-05-21T06:12:16.705Z,101766.47
2023-05-21T06:14:46.247Z,101768.22
2023-05-21T06:17:14.450Z,101760.25
2023-05-21T06:19:42.430Z,101767.34
2023-05-21T06:22:10.417Z,101762.84
2023-05-21T06:24:38.410Z,101764.66
2023-05-21T06:27:06.784Z,101769.06
2023-05-21T06:29:34.746Z,101768.22
2023-05-21T06:32:04.717Z,101762.84
2023-05-21T06:34:32.717Z,101763.72
2023-05-21T06:37:02.296Z,101777.13
2023-05-21T06:39:30.257Z,101768.16
2023-05-21T06:41:58.243Z,101773.44
2023-05-21T06:44:26.268Z,101771.59
2023-05-21T06:46:54.287Z,101775.09
2023-05-21T06:49:23.670Z,101763.44
2023-05-21T06:51:51.653Z,101763.44
2023-05-21T06:54:19.649Z,101761.69
2023-05-21T06:56:47.650Z,101758.94
2023-05-21T06:59:18.382Z,101757.91
2023-05-21T07:01:46.379Z,101760.59
2023-05-21T07:04:14.566Z,101759.66
2023-05-21T07:06:43.902Z,101754.28
2023-05-21T07:09:12.022Z,101750.66
2023-05-21T07:11:40.002Z,101743.41
2023-05-21T07:14:10.347Z,101754.13
2023-05-21T07:16:39.210Z,101751.47
2023-05-21T07:19:10.165Z,101739.78
2023-05-21T07:21:38.199Z,101740.66
2023-05-21T07:24:07.757Z,101740.56
2023-05-21T07:26:35.866Z,101751.28
2023-05-21T07:29:03.887Z,101738.75
2023-05-21T07:31:31.961Z,101739.63
2023-05-21T07:34:00.016Z,101738.75
2023-05-21T07:36:28.051Z,101730.72
2023-05-21T07:38:56.379Z,101727.94
2023-05-21T07:41:25.817Z,101736.00
2023-05-21T07:43:53.765Z,101738.69
2023-05-21T07:46:21.798Z,101736.00
2023-05-21T07:48:49.992Z,101737.72
2023-05-21T07:51:18.364Z,101735.03
2023-05-21T07:53:46.314Z,101731.59
2023-05-21T07:56:14.304Z,101732.50
2023-05-21T07:58:45.968Z,101725.44
2023-05-21T08:01:14.062Z,101729.06
2023-05-21T08:03:42.202Z,101723.69
2023-05-21T08:06:10.245Z,101721.00
2023-05-21T08:08:38.256Z,101725.44
2023-05-21T08:11:06.491Z,101718.97
2023-05-21T08:13:34.427Z,101717.13
2023-05-21T08:16:05.379Z,101717.09
2023-05-21T08:18:33.543Z,101718.81
2023-05-21T08:21:01.631Z,101710.66
2023-05-21T08:23:32.481Z,101710.63
2023-05-21T08:26:00.485Z,101713.19
2023-05-21T08:28:29.002Z,101721.25
2023-05-21T08:30:57.124Z,101721.19
2023-05-21T08:33:26.528Z,101721.94
2023-05-21T08:35:54.810Z,101711.16
2023-05-21T08:38:22.818Z,101728.13
2023-05-21T08:40:53.219Z,101711.16
2023-05-21T08:43:21.738Z,101712.91
2023-05-21T08:45:55.080Z,101721.81
2023-05-21T08:48:24.665Z,101716.44
2023-05-21T08:50:55.312Z,101710.13
2023-05-21T08:53:28.724Z,101710.06
2023-05-21T08:55:58.226Z,101721.66
2023-05-21T08:58:26.223Z,101720.78
2023-05-21T09:00:56.080Z,101717.22
2023-05-21T09:03:25.312Z,101719.88
2023-05-21T09:05:55.363Z,101715.47
2023-05-21T09:08:33.331Z,101714.53
2023-05-21T09:11:03.119Z,101710.97
2023-05-21T09:13:32.751Z,101707.38
2023-05-21T09:16:01.299Z,101708.31
2023-05-21T09:18:29.326Z,101696.66
2023-05-21T09:20:58.822Z,101702.00
2023-05-21T09:23:32.942Z,101706.47
2023-05-21T09:26:02.166Z,101709.16
2023-05-21T09:28:30.915Z,101714.53
2023-05-21T09:31:04.879Z,101706.47
2023-05-21T09:33:32.955Z,101694.84
2023-05-21T09:36:02.331Z,101699.25
2023-05-21T09:38:31.147Z,101693.88
2023-05-21T09:41:06.470Z,101693.97
2023-05-21T09:43:34.491Z,101692.16
2023-05-21T09:46:02.628Z,101703.66
2023-05-21T09:48:38.238Z,101686.69
2023-05-21T09:51:16.116Z,101677.78
2023-05-21T09:53:45.707Z,101684.00
2023-05-21T09:56:16.452Z,101696.56
2023-05-21T09:58:44.906Z,101693.78
2023-05-21T10:01:12.852Z,101679.63
2023-05-21T10:03:41.611Z,101686.78
2023-05-21T10:06:10.454Z,101679.50
2023-05-21T10:08:46.102Z,101679.50
2023-05-21T10:11:14.918Z,101681.34
2023-05-21T10:13:46.105Z,101674.16
2023-05-21T10:16:14.707Z,101674.16
2023-05-21T10:18:43.920Z,101674.16
2023-05-21T10:21:12.117Z,101682.19
2023-05-21T10:23:42.845Z,101673.28
2023-05-21T10:26:12.648Z,101674.16
2023-05-21T10:28:41.222Z,101674.09
2023-05-21T10:31:10.505Z,101662.47
2023-05-21T10:33:39.553Z,101660.69
2023-05-21T10:36:07.771Z,101667.78
2023-05-21T10:38:37.511Z,101661.56
2023-05-21T10:41:08.025Z,101656.19
2023-05-21T10:43:49.323Z,101649.97
2023-05-21T10:46:32.154Z,101654.44
2023-05-21T10:49:25.461Z,101652.66
2023-05-21T10:52:04.721Z,101661.63
2023-05-21T10:54:58.416Z,101643.91
2023-05-21T10:57:44.999Z,101656.50
2023-05-21T11:00:14.084Z,101657.47
2023-05-21T11:02:46.030Z,101650.38
2023-05-21T11:05:14.183Z,101649.50
2023-05-21T11:07:53.640Z,101652.25
2023-05-21T11:10:37.573Z,101649.56
2023-05-21T11:13:25.734Z,101637.13
2023-05-21T11:16:09.262Z,101646.13
2023-05-21T11:19:02.636Z,101642.63
2023-05-21T11:21:31.986Z,101630.34
2023-05-21T11:24:10.967Z,101630.34
2023-05-21T11:27:08.952Z,101621.34
2023-05-21T11:29:47.502Z,101624.91
2023-05-21T11:32:17.453Z,101619.38
2023-05-21T11:34:49.189Z,101622.06
2023-05-21T11:37:29.966Z,101613.94
2023-05-21T11:39:59.683Z,101604.94
2023-05-21T11:42:32.724Z,101607.63
2023-05-21T11:45:04.192Z,101612.03
2023-05-21T11:47:34.988Z,101607.53
2023-05-21T11:50:04.445Z,101612.84
2023-05-21T11:52:33.149Z,101612.84
2023-05-21T11:55:01.805Z,101606.53
2023-05-21T11:57:32.738Z,101607.28
2023-05-21T12:00:12.402Z,101608.34
2023-05-21T12:02:44.925Z,101602.88
2023-05-21T12:05:13.347Z,101599.34
2023-05-21T12:07:41.632Z,101593.00
2023-05-21T12:10:10.717Z,101593.88
2023-05-21T12:12:49.977Z,101592.00
2023-05-21T12:15:25.874Z,101592.09
2023-05-21T12:17:54.234Z,101589.31
2023-05-21T12:20:23.341Z,101589.41
2023-05-21T12:22:51.353Z,101580.41
2023-05-21T12:25:21.138Z,101580.41
2023-05-21T12:27:52.530Z,101583.94
2023-05-21T12:30:21.209Z,101586.63
2023-05-21T12:32:50.777Z,101573.13
2023-05-21T12:35:24.255Z,101573.06
2023-05-21T12:37:53.100Z,101573.06
2023-05-21T12:40:23.283Z,101571.41
2023-05-21T12:42:52.138Z,101568.63
2023-05-21T12:45:22.757Z,101556.28
2023-05-21T12:47:56.384Z,101563.47
2023-05-21T12:50:27.779Z,101557.16
2023-05-21T12:52:56.995Z,101565.94
2023-05-21T12:55:26.687Z,101561.47
2023-05-21T12:58:04.492Z,101554.31
2023-05-21T13:00:33.248Z,101548.94
2023-05-21T13:03:06.391Z,101545.41
2023-05-21T13:05:35.151Z,101538.13
2023-05-21T13:08:03.183Z,101547.88
2023-05-21T13:10:31.284Z,101541.50
2023-05-21T13:12:59.280Z,101556.72
2023-05-21T13:15:27.399Z,101540.53
2023-05-21T13:17:56.927Z,101553.94
2023-05-21T13:20:27.810Z,101547.66
2023-05-21T13:22:56.218Z,101545.91
2023-05-21T13:25:28.506Z,101545.91
2023-05-21T13:27:57.382Z,101540.53
2023-05-21T13:30:25.727Z,101551.09
2023-05-21T13:32:56.655Z,101544.88
2023-05-21T13:35:26.418Z,101559.16
2023-05-21T13:37:54.533Z,101554.63
2023-05-21T13:40:25.565Z,101564.41
2023-05-21T13:42:53.593Z,101556.47
2023-05-21T13:45:25.430Z,101549.28
2023-05-21T13:47:53.971Z,101551.97
2023-05-21T13:50:21.960Z,101552.81
2023-05-21T13:52:51.467Z,101551.97
2023-05-21T13:55:19.647Z,101543.91
2023-05-21T13:57:47.649Z,101541.22
2023-05-21T14:00:21.014Z,101535.00
2023-05-21T14:02:50.179Z,101537.69
2023-05-21T14:05:18.574Z,101542.09
2023-05-21T14:07:48.282Z,101540.28
2023-05-21T14:10:17.963Z,101539.41
2023-05-21T14:12:47.249Z,101543.84
2023-05-21T14:15:16.160Z,101535.81
2023-05-21T14:17:44.175Z,101534.03
2023-05-21T14:20:13.013Z,101538.50
2023-05-21T14:22:41.049Z,101541.16
2023-05-21T14:25:09.613Z,101546.53
2023-05-21T14:27:38.965Z,101534.84
2023-05-21T14:30:08.160Z,101541.16
2023-05-21T14:32:38.910Z,101534.84
2023-05-21T14:35:07.515Z,101545.56
2023-05-21T14:37:35.533Z,101543.75
2023-05-21T14:40:05.400Z,101546.44
2023-05-21T14:42:33.405Z,101530.34
2023-05-21T14:45:17.669Z,101539.25
2023-05-21T14:47:47.727Z,101546.34
2023-05-21T14:50:17.612Z,101536.56
2023-05-21T14:52:45.754Z,101529.38
2023-05-21T14:55:16.544Z,101524.13
2023-05-21T14:57:44.694Z,101527.66
2023-05-21T15:00:15.288Z,101531.19
2023-05-21T15:02:43.452Z,101518.66
2023-05-21T15:05:11.533Z,101530.25
2023-05-21T15:07:39.526Z,101517.78
2023-05-21T15:10:09.147Z,101518.59
2023-05-21T15:12:37.102Z,101518.59
2023-05-21T15:15:05.954Z,101510.53
2023-05-21T15:17:35.986Z,101517.72
2023-05-21T15:20:04.707Z,101510.53
2023-05-21T15:22:32.818Z,101508.72
2023-05-21T15:25:01.225Z,101505.19
2023-05-21T15:27:29.237Z,101498.00
2023-05-21T15:30:00.231Z,101502.50
2023-05-21T15:32:28.389Z,101496.19
2023-05-21T15:35:00.987Z,101500.69
2023-05-21T15:37:32.216Z,101500.56
2023-05-21T15:40:00.613Z,101490.81
2023-05-21T15:42:31.329Z,101483.63
2023-05-21T15:44:59.378Z,101480.94
2023-05-21T15:47:27.384Z,101485.44
2023-05-21T15:49:55.432Z,101477.41
2023-05-21T15:52:25.611Z,101472.03
2023-05-21T15:54:53.661Z,101488.03
2023-05-21T15:57:21.664Z,101486.22
2023-05-21T15:59:50.660Z,101484.47
2023-05-21T16:02:18.712Z,101484.47
2023-05-21T16:04:46.944Z,101488.13
2023-05-21T16:07:15.357Z,101472.03
2023-05-21T16:09:44.802Z,101483.63
2023-05-21T16:12:12.900Z,101485.44
2023-05-21T16:14:40.980Z,101481.72
2023-05-21T16:17:09.060Z,101482.59
2023-05-21T16:19:40.227Z,101482.59
2023-05-21T16:22:10.023Z,101487.00
2023-05-21T16:24:39.041Z,101497.72
2023-05-21T16:27:11.251Z,101496.78
2023-05-21T16:29:40.927Z,101494.09
2023-05-21T16:32:13.072Z,101498.59
2023-05-21T16:34:41.144Z,101498.59
2023-05-21T16:37:09.952Z,101499.44
2023-05-21T16:39:38.026Z,101499.44
2023-05-21T16:42:06.430Z,101495.91
2023-05-21T16:44:37.071Z,101502.13
2023-05-21T16:47:05.422Z,101492.38
2023-05-21T16:49:36.153Z,101493.13
2023-05-21T16:52:07.460Z,101495.81
2023-05-21T16:54:35.446Z,101488.66
2023-05-21T16:57:03.524Z,101486.91
2023-05-21T16:59:31.537Z,101491.41
2023-05-21T17:02:04.017Z,101489.59
2023-05-21T17:04:34.080Z,101499.38
2023-05-21T17:07:02.176Z,101494.88
2023-05-21T17:09:30.281Z,101492.19
2023-05-21T17:11:58.242Z,101491.34
2023-05-21T17:14:34.305Z,101495.75
2023-05-21T17:17:04.528Z,101492.19
2023-05-21T17:19:35.621Z,101497.56
2023-05-21T17:22:03.792Z,101500.25
2023-05-21T17:24:34.626Z,101497.56
2023-05-21T17:27:02.633Z,101495.75
2023-05-21T17:29:33.660Z,101493.06
2023-05-21T17:32:01.974Z,101495.75
2023-05-21T17:34:31.359Z,101501.16
2023-05-21T17:37:00.409Z,101496.69
2023-05-21T17:39:28.395Z,101487.00
2023-05-21T17:41:56.882Z,101495.81
2023-05-21T17:44:25.661Z,101491.34
2023-05-21T17:46:57.611Z,101493.13
2023-05-21T17:49:25.966Z,101494.88
2023-05-21T17:51:55.736Z,101496.59
2023-05-21T17:54:26.291Z,101503.69
2023-05-21T17:56:54.302Z,101501.00
2023-05-21T17:59:22.386Z,101503.63
2023-05-21T18:01:50.389Z,101503.69
2023-05-21T18:04:18.582Z,101499.13
2023-05-21T18:06:46.550Z,101501.78
2023-05-21T18:09:15.850Z,101500.94
2023-05-21T18:11:44.388Z,101509.84
2023-05-21T18:14:12.338Z,101498.25
2023-05-21T18:16:40.489Z,101499.13
2023-05-21T18:19:08.596Z,101503.63
2023-05-21T18:21:36.826Z,101508.97
2023-05-21T18:24:06.237Z,101507.16
2023-05-21T18:26:35.653Z,101507.16
2023-05-21T18:29:03.652Z,101499.97
2023-05-21T18:31:34.716Z,101506.31
2023-05-21T18:34:02.703Z,101495.63
2023-05-21T18:36:38.728Z,101497.41
2023-05-21T18:39:07.791Z,101497.41
2023-05-21T18:41:38.075Z,101493.81
2023-05-21T18:44:07.009Z,101492.03
2023-05-21T18:46:35.085Z,101491.13
2023-05-21T18:49:06.517Z,101498.25
2023-05-21T18:51:34.626Z,101492.88
2023-05-21T18:54:02.673Z,101489.34
2023-05-21T18:56:30.870Z,101491.13
2023-05-21T18:59:00.271Z,101488.44
2023-05-21T19:01:28.493Z,101485.78
2023-05-21T19:03:56.637Z,101492.03
2023-05-21T19:06:25.635Z,101483.09
2023-05-21T19:08:53.919Z,101490.28
2023-05-21T19:11:23.698Z,101491.13
2023-05-21T19:13:51.734Z,101491.13
2023-05-21T19:16:21.186Z,101496.50
2023-05-21T19:18:49.264Z,101492.97
2023-05-21T19:21:17.324Z,101484.91
2023-05-21T19:23:52.776Z,101489.41
2023-05-21T19:26:21.652Z,101492.97
2023-05-21T19:28:53.301Z,101493.91
2023-05-21T19:31:26.293Z,101485.88
2023-05-21T19:33:54.404Z,101489.41
2023-05-21T19:36:23.090Z,101489.50
2023-05-21T19:38:51.654Z,101486.03
2023-05-21T19:41:21.593Z,101484.91
2023-05-21T19:43:49.609Z,101490.38
2023-05-21T19:46:20.456Z,101492.19
2023-05-21T19:48:52.300Z,101490.44
2023-05-21T19:51:23.073Z,101494.88
2023-05-21T19:53:53.666Z,101490.44
2023-05-21T19:56:21.985Z,101497.56
2023-05-21T19:58:52.242Z,101495.81
2023-05-21T20:01:21.722Z,101502.94
2023-05-21T20:03:51.886Z,101499.38
2023-05-21T20:06:20.783Z,101497.63
2023-05-21T20:08:48.939Z,101495.81
2023-05-21T20:11:17.497Z,101494.88
2023-05-21T20:13:50.017Z,101492.25
2023-05-21T20:16:21.525Z,101498.50
2023-05-21T20:18:56.744Z,101505.59
2023-05-21T20:21:25.575Z,101503.84
2023-05-21T20:23:54.327Z,101510.13
2023-05-21T20:26:23.212Z,101505.69
2023-05-21T20:28:51.208Z,101496.78
2023-05-21T20:31:19.428Z,101492.25
2023-05-21T20:33:50.441Z,101490.44
2023-05-21T20:36:21.342Z,101496.69
2023-05-21T20:38:49.443Z,101503.84
2023-05-21T20:41:17.541Z,101494.03
2023-05-21T20:43:46.332Z,101485.97
2023-05-21T20:46:18.509Z,101485.06
2023-05-21T20:48:47.280Z,101480.59
2023-05-21T20:51:16.458Z,101483.19
2023-05-21T20:53:45.924Z,101478.84
2023-05-21T20:56:17.007Z,101474.44
2023-05-21T20:58:48.348Z,101478.84
2023-05-21T21:01:17.508Z,101472.63
2023-05-21T21:03:46.668Z,101480.69
2023-05-21T21:06:18.771Z,101468.31
2023-05-21T21:08:50.084Z,101476.38
2023-05-21T21:11:18.201Z,101477.22
2023-05-21T21:13:46.163Z,101478.16
2023-05-21T21:16:17.121Z,101482.66
2023-05-21T21:18:46.017Z,101482.66
2023-05-21T21:21:14.178Z,101484.47
2023-05-21T21:23:42.335Z,101484.59
2023-05-21T21:26:11.714Z,101491.66
2023-05-21T21:28:40.037Z,101489.00
2023-05-21T21:31:08.132Z,101487.25
2023-05-21T21:33:36.155Z,101490.81
2023-05-21T21:36:04.377Z,101491.78
2023-05-21T21:38:32.350Z,101486.41
2023-05-21T21:41:00.386Z,101487.34
2023-05-21T21:43:29.723Z,101490.13
2023-05-21T21:45:57.685Z,101493.59
2023-05-21T21:48:25.710Z,101494.44
2023-05-21T21:50:53.774Z,101493.59
2023-05-21T21:53:21.782Z,101491.78
2023-05-21T21:55:50.921Z,101494.53
2023-05-21T21:58:21.737Z,101490.00
2023-05-21T22:00:51.306Z,101495.38
2023-05-21T22:03:19.276Z,101492.69
2023-05-21T22:05:50.590Z,101497.19
2023-05-21T22:08:18.854Z,101509.75
2023-05-21T22:10:46.965Z,101515.13
2023-05-21T22:13:15.043Z,101527.66
2023-05-21T22:15:43.126Z,101550.94
2023-05-21T22:18:12.588Z,101585.78
2023-05-21T22:20:40.796Z,101578.72
2023-05-21T22:23:11.851Z,101584.94
2023-05-21T22:25:39.933Z,101587.63
2023-05-21T22:28:07.961Z,101578.72
2023-05-21T22:30:37.931Z,101569.78
2023-05-21T22:33:06.284Z,101564.41
2023-05-21T22:35:35.750Z,101550.13
2023-05-21T22:38:03.826Z,101543.06
2023-05-21T22:40:31.862Z,101527.81
2023-05-21T22:43:00.200Z,101530.50
2023-05-21T22:45:28.532Z,101520.75
2023-05-21T22:48:01.639Z,101517.09
2023-05-21T22:50:32.951Z,101511.84
2023-05-21T22:53:02.375Z,101508.19
2023-05-21T22:55:30.403Z,101506.47
2023-05-21T22:57:58.411Z,101504.75
2023-05-21T23:00:29.194Z,101503.78
2023-05-21T23:02:57.331Z,101497.56
2023-05-21T23:05:25.667Z,101497.56
2023-05-21T23:07:56.601Z,101487.75
2023-05-21T23:10:26.220Z,101499.38
2023-05-21T23:12:54.155Z,101492.19
2023-05-21T23:15:22.732Z,101479.72
2023-05-21T23:17:50.682Z,101488.66
2023-05-21T23:20:18.807Z,101478.84
2023-05-21T23:22:46.821Z,101475.31
2023-05-21T23:25:14.765Z,101462.78
2023-05-21T23:27:44.050Z,101464.59
2023-05-21T23:30:12.625Z,101464.59
2023-05-21T23:32:41.032Z,101465.47
2023-05-21T23:35:10.595Z,101466.41
2023-05-21T23:37:38.627Z,101463.72
2023-05-21T23:40:08.033Z,101468.25
2023-05-21T23:42:36.198Z,101465.56
2023-05-21T23:45:06.328Z,101462.00
2023-05-21T23:47:34.412Z,101465.56
2023-05-21T23:50:02.739Z,101472.75
2023-05-21T23:52:30.834Z,101472.75
2023-05-21T23:54:59.140Z,101462.97
2023-05-21T23:57:27.184Z,101460.28
2023-05-21T23:59:55.116Z,101465.66
